createdAt,value
2023-06-10T00:01:56.461Z,1.20
2023-06-10T00:04:23.671Z,1.13
2023-06-10T00:06:50.669Z,1.30
2023-06-10T00:09:17.280Z,1.10
2023-06-10T00:11:44.006Z,1.08
2023-06-10T00:14:10.626Z,1.42
2023-06-10T00:16:37.454Z,1.40
2023-06-10T00:19:04.958Z,1.10
2023-06-10T00:21:38.520Z,1.50
2023-06-10T00:24:13.232Z,1.00
2023-06-10T00:26:41.665Z,1.00
2023-06-10T00:29:08.933Z,1.10
2023-06-10T00:31:36.502Z,1.00
2023-06-10T00:34:03.407Z,0.95
2023-06-10T00:36:30.959Z,0.90
2023-06-10T00:38:58.529Z,0.90
2023-06-10T00:41:25.300Z,1.40
2023-06-10T00:43:51.873Z,0.93
2023-06-10T00:46:19.566Z,0.90
2023-06-10T00:48:47.577Z,1.25
2023-06-10T00:51:14.267Z,1.00
2023-06-10T00:53:42.468Z,1.00
2023-06-10T00:56:09.970Z,1.88
2023-06-10T00:58:37.053Z,0.93
2023-06-10T01:01:05.279Z,1.00
2023-06-10T01:03:33.475Z,0.95
2023-06-10T01:06:25.597Z,1.20
2023-06-10T01:09:02.125Z,1.63
2023-06-10T01:11:48.688Z,1.10
2023-06-10T01:14:18.150Z,0.90
2023-06-10T01:16:46.898Z,0.95
2023-06-10T01:19:18.790Z,1.50
2023-06-10T01:21:49.802Z,1.15
2023-06-10T01:24:19.533Z,1.67
2023-06-10T01:26:51.163Z,1.17
2023-06-10T01:29:28.195Z,0.95
2023-06-10T01:32:15.489Z,1.70
2023-06-10T01:34:44.461Z,1.88
2023-06-10T01:37:15.066Z,1.40
2023-06-10T01:39:43.235Z,1.60
2023-06-10T01:42:12.579Z,1.40
2023-06-10T01:44:40.799Z,1.77
2023-06-10T01:47:07.432Z,1.35
2023-06-10T01:49:34.053Z,1.27
2023-06-10T01:52:00.753Z,1.60
2023-06-10T01:54:27.346Z,1.13
2023-06-10T01:56:53.944Z,1.40
2023-06-10T01:59:20.541Z,1.17
2023-06-10T02:01:47.103Z,1.23
2023-06-10T02:04:13.644Z,1.73
2023-06-10T02:06:40.214Z,1.20
2023-06-10T02:09:07.345Z,1.00
2023-06-10T02:11:33.881Z,1.20
2023-06-10T02:14:00.801Z,1.40
2023-06-10T02:16:27.759Z,1.60
2023-06-10T02:18:54.457Z,1.33
2023-06-10T02:21:21.091Z,1.10
2023-06-10T02:23:47.672Z,1.00
2023-06-10T02:26:14.251Z,1.80
2023-06-10T02:28:44.011Z,1.20
2023-06-10T02:31:10.706Z,1.42
2023-06-10T02:33:41.387Z,1.63
2023-06-10T02:36:08.079Z,1.17
2023-06-10T02:38:34.664Z,1.10
2023-06-10T02:41:01.201Z,1.40
2023-06-10T02:43:27.804Z,1.40
2023-06-10T02:45:54.421Z,1.92
2023-06-10T02:48:21.032Z,1.50
2023-06-10T02:50:47.737Z,1.45
2023-06-10T02:53:14.335Z,1.65
2023-06-10T02:55:42.261Z,1.83
2023-06-10T02:58:08.861Z,1.73
2023-06-10T03:00:35.444Z,1.83
2023-06-10T03:03:04.785Z,1.67
2023-06-10T03:05:31.583Z,1.90
2023-06-10T03:07:58.116Z,1.85
2023-06-10T03:10:24.723Z,1.38
2023-06-10T03:12:51.278Z,1.65
2023-06-10T03:15:17.862Z,1.48
2023-06-10T03:17:44.467Z,1.70
2023-06-10T03:20:11.650Z,1.50
2023-06-10T03:22:39.306Z,1.20
2023-06-10T03:25:07.370Z,1.90
2023-06-10T03:27:34.537Z,1.45
2023-06-10T03:30:01.353Z,1.30
2023-06-10T03:32:27.994Z,1.33
2023-06-10T03:34:58.283Z,1.63
2023-06-10T03:37:25.856Z,1.40
2023-06-10T03:39:52.411Z,1.20
2023-06-10T03:42:18.964Z,1.27
2023-06-10T03:44:45.560Z,1.10
2023-06-10T03:47:13.948Z,1.17
2023-06-10T03:49:41.489Z,1.58
2023-06-10T03:52:08.354Z,1.40
2023-06-10T03:54:35.926Z,0.88
2023-06-10T03:57:02.634Z,1.77
2023-06-10T03:59:29.857Z,1.50
2023-06-10T04:01:56.548Z,1.35
2023-06-10T04:04:24.673Z,1.20
2023-06-10T04:06:51.817Z,1.52
2023-06-10T04:09:18.540Z,1.60
2023-06-10T04:11:45.191Z,1.65
2023-06-10T04:14:11.866Z,1.58
2023-06-10T04:16:39.616Z,1.52
2023-06-10T04:19:06.844Z,1.90
2023-06-10T04:21:34.107Z,1.52
2023-06-10T04:24:00.800Z,1.35
2023-06-10T04:26:28.261Z,1.38
2023-06-10T04:28:54.930Z,1.55
2023-06-10T04:31:21.947Z,1.23
2023-06-10T04:33:48.567Z,1.88
2023-06-10T04:36:15.857Z,1.42
2023-06-10T04:38:42.641Z,1.58
2023-06-10T04:41:09.649Z,1.25
2023-06-10T04:43:36.247Z,2.53
2023-06-10T04:46:03.019Z,1.55
2023-06-10T04:48:30.152Z,1.50
2023-06-10T04:50:57.848Z,2.15
2023-06-10T04:53:24.397Z,1.00
2023-06-10T04:55:51.038Z,1.58
2023-06-10T04:58:17.608Z,1.27
2023-06-10T05:00:44.887Z,1.85
2023-06-10T05:03:12.030Z,1.50
2023-06-10T05:05:38.661Z,1.52
2023-06-10T05:08:07.700Z,1.55
2023-06-10T05:10:35.442Z,1.70
2023-06-10T05:13:02.038Z,2.20
2023-06-10T05:15:28.660Z,2.05
2023-06-10T05:17:58.536Z,2.45
2023-06-10T05:20:26.354Z,1.77
2023-06-10T05:22:53.151Z,2.35
2023-06-10T05:25:19.700Z,1.48
2023-06-10T05:27:46.283Z,1.48
2023-06-10T05:30:13.838Z,1.30
2023-06-10T05:32:40.471Z,1.48
2023-06-10T05:35:07.901Z,1.67
2023-06-10T05:37:37.927Z,1.63
2023-06-10T05:40:05.692Z,1.20
2023-06-10T05:42:32.318Z,1.52
2023-06-10T05:44:58.903Z,1.52
2023-06-10T05:47:25.496Z,2.53
2023-06-10T05:49:52.941Z,1.13
2023-06-10T05:52:20.009Z,1.27
2023-06-10T05:54:46.709Z,1.73
2023-06-10T05:57:14.104Z,1.60
2023-06-10T05:59:40.697Z,1.38
2023-06-10T06:02:07.431Z,1.65
2023-06-10T06:04:35.174Z,1.27
2023-06-10T06:07:01.883Z,1.15
2023-06-10T06:09:28.424Z,1.45
2023-06-10T06:11:55.045Z,1.20
2023-06-10T06:14:21.626Z,1.60
2023-06-10T06:16:48.187Z,1.92
2023-06-10T06:19:15.065Z,1.38
2023-06-10T06:21:41.935Z,1.35
2023-06-10T06:24:08.813Z,1.30
2023-06-10T06:26:35.680Z,1.63
2023-06-10T06:29:02.270Z,1.48
2023-06-10T06:31:28.865Z,1.27
2023-06-10T06:33:55.502Z,1.83
2023-06-10T06:36:22.082Z,1.55
2023-06-10T06:38:48.629Z,1.40
2023-06-10T06:41:15.202Z,1.80
2023-06-10T06:43:43.394Z,1.65
2023-06-10T06:46:10.391Z,1.27
2023-06-10T06:48:37.052Z,1.17
2023-06-10T06:51:03.904Z,1.90
2023-06-10T06:53:32.258Z,1.60
2023-06-10T06:55:59.080Z,1.30
2023-06-10T06:58:25.799Z,1.60
2023-06-10T07:00:52.393Z,2.20
2023-06-10T07:03:18.998Z,1.63
2023-06-10T07:05:45.616Z,1.30
2023-06-10T07:08:13.218Z,1.40
2023-06-10T07:10:39.806Z,1.30
2023-06-10T07:13:06.337Z,1.40
2023-06-10T07:15:34.626Z,1.40
2023-06-10T07:18:01.302Z,1.27
2023-06-10T07:20:27.905Z,1.27
2023-06-10T07:22:54.856Z,1.00
2023-06-10T07:25:21.488Z,1.50
2023-06-10T07:27:48.066Z,1.10
2023-06-10T07:30:14.822Z,1.55
2023-06-10T07:32:41.414Z,1.23
2023-06-10T07:35:11.486Z,1.25
2023-06-10T07:37:38.562Z,1.23
2023-06-10T07:40:06.129Z,1.23
2023-06-10T07:42:38.876Z,1.35
2023-06-10T07:45:06.100Z,1.38
2023-06-10T07:47:35.666Z,1.40
2023-06-10T07:50:02.809Z,1.48
2023-06-10T07:52:29.908Z,2.13
2023-06-10T07:54:56.513Z,1.70
2023-06-10T07:57:23.238Z,1.30
2023-06-10T07:59:50.320Z,1.63
2023-06-10T08:02:17.021Z,1.67
2023-06-10T08:04:43.722Z,1.65
2023-06-10T08:07:10.329Z,1.55
2023-06-10T08:09:37.032Z,1.98
2023-06-10T08:12:04.041Z,1.23
2023-06-10T08:14:30.976Z,1.70
2023-06-10T08:16:57.741Z,1.13
2023-06-10T08:19:24.404Z,1.20
2023-06-10T08:21:51.070Z,1.17
2023-06-10T08:24:19.984Z,1.23
2023-06-10T08:26:46.646Z,1.30
2023-06-10T08:29:14.576Z,1.17
2023-06-10T08:31:45.355Z,1.55
2023-06-10T08:34:12.930Z,1.20
2023-06-10T08:36:39.612Z,1.13
2023-06-10T08:39:06.354Z,1.38
2023-06-10T08:41:38.043Z,1.40
2023-06-10T08:44:13.811Z,1.10
2023-06-10T08:46:45.917Z,1.08
2023-06-10T08:49:19.572Z,0.80
2023-06-10T08:51:46.431Z,1.02
2023-06-10T08:54:20.901Z,1.30
2023-06-10T08:56:51.083Z,1.58
2023-06-10T08:59:18.316Z,1.27
2023-06-10T09:01:46.478Z,1.08
2023-06-10T09:04:13.486Z,1.08
2023-06-10T09:06:41.486Z,0.98
2023-06-10T09:09:08.372Z,0.80
2023-06-10T09:11:35.070Z,1.02
2023-06-10T09:14:02.187Z,1.00
2023-06-10T09:16:29.524Z,0.90
2023-06-10T09:18:56.966Z,1.10
2023-06-10T09:21:24.562Z,1.08
2023-06-10T09:23:51.803Z,1.00
2023-06-10T09:26:19.393Z,1.05
2023-06-10T09:28:49.114Z,0.70
2023-06-10T09:31:19.454Z,0.90
2023-06-10T09:33:46.343Z,1.00
2023-06-10T09:36:22.240Z,0.95
2023-06-10T09:38:51.824Z,0.80
2023-06-10T09:41:18.509Z,1.02
2023-06-10T09:43:47.671Z,1.20
2023-06-10T09:46:21.175Z,0.90
2023-06-10T09:48:49.051Z,0.70
2023-06-10T09:51:18.308Z,1.00
2023-06-10T09:53:50.388Z,0.68
2023-06-10T09:56:17.220Z,1.20
2023-06-10T09:58:44.666Z,0.98
2023-06-10T10:01:13.298Z,1.20
2023-06-10T10:03:53.186Z,0.90
2023-06-10T10:06:21.223Z,1.10
2023-06-10T10:08:50.355Z,0.73
2023-06-10T10:11:28.114Z,0.90
2023-06-10T10:13:55.272Z,0.80
2023-06-10T10:16:30.484Z,0.60
2023-06-10T10:19:02.730Z,1.10
2023-06-10T10:21:36.828Z,0.63
2023-06-10T10:24:13.784Z,0.75
2023-06-10T10:26:41.384Z,0.80
2023-06-10T10:29:26.186Z,0.80
2023-06-10T10:31:56.079Z,1.20
2023-06-10T10:34:36.300Z,0.82
2023-06-10T10:37:03.233Z,0.70
2023-06-10T10:39:31.270Z,1.05
2023-06-10T10:41:58.724Z,1.00
2023-06-10T10:44:26.429Z,0.70
2023-06-10T10:46:55.211Z,1.02
2023-06-10T10:49:23.878Z,0.90
2023-06-10T10:52:13.051Z,1.00
2023-06-10T10:54:45.127Z,0.70
2023-06-10T10:57:20.251Z,0.70
2023-06-10T10:59:49.742Z,0.68
2023-06-10T11:02:44.469Z,0.65
2023-06-10T11:05:15.345Z,0.65
2023-06-10T11:07:53.405Z,0.60
2023-06-10T11:10:30.576Z,0.75
2023-06-10T11:12:57.920Z,0.70
2023-06-10T11:15:26.900Z,0.60
2023-06-10T11:18:12.806Z,0.50
2023-06-10T11:20:51.592Z,0.57
2023-06-10T11:23:30.299Z,0.50
2023-06-10T11:26:38.329Z,0.65
2023-06-10T11:29:06.939Z,0.52
2023-06-10T11:31:40.919Z,0.43
2023-06-10T11:34:09.256Z,0.50
2023-06-10T11:36:41.444Z,0.60
2023-06-10T11:39:08.328Z,0.50
2023-06-10T11:41:36.294Z,0.47
2023-06-10T11:44:09.589Z,0.50
2023-06-10T11:46:37.061Z,0.60
2023-06-10T11:49:05.200Z,0.45
2023-06-10T11:51:45.228Z,0.50
2023-06-10T11:54:11.899Z,0.60
2023-06-10T11:56:38.486Z,0.40
2023-06-10T11:59:08.626Z,0.45
2023-06-10T12:01:40.077Z,0.43
2023-06-10T12:04:14.032Z,0.40
2023-06-10T12:06:49.049Z,0.40
2023-06-10T12:09:26.802Z,0.40
2023-06-10T12:12:03.960Z,0.40
2023-06-10T12:14:51.649Z,0.47
2023-06-10T12:17:18.250Z,0.47
2023-06-10T12:19:44.881Z,0.45
2023-06-10T12:22:11.560Z,0.45
2023-06-10T12:25:02.608Z,0.50
2023-06-10T12:27:30.920Z,0.40
2023-06-10T12:30:06.158Z,0.40
2023-06-10T12:32:46.662Z,0.47
2023-06-10T12:35:27.635Z,0.45
2023-06-10T12:38:08.055Z,0.40
2023-06-10T12:40:37.979Z,0.40
2023-06-10T12:43:05.085Z,0.52
2023-06-10T12:45:34.147Z,0.43
2023-06-10T12:48:11.413Z,0.50
2023-06-10T12:50:43.119Z,0.35
2023-06-10T12:53:12.304Z,0.50
2023-06-10T12:55:39.804Z,0.60
2023-06-10T12:58:06.825Z,0.70
2023-06-10T13:00:35.826Z,0.57
2023-06-10T13:03:03.527Z,0.40
2023-06-10T13:05:30.625Z,0.70
2023-06-10T13:07:57.462Z,0.55
2023-06-10T13:10:25.958Z,0.70
2023-06-10T13:12:53.689Z,0.45
2023-06-10T13:15:20.463Z,0.60
2023-06-10T13:17:50.996Z,0.68
2023-06-10T13:20:18.309Z,0.63
2023-06-10T13:22:45.009Z,0.60
2023-06-10T13:25:12.652Z,0.55
2023-06-10T13:27:40.718Z,0.50
2023-06-10T13:30:08.978Z,0.40
2023-06-10T13:32:37.007Z,0.70
2023-06-10T13:35:05.336Z,0.60
2023-06-10T13:37:32.316Z,0.50
2023-06-10T13:39:58.940Z,0.50
2023-06-10T13:42:27.564Z,0.45
2023-06-10T13:44:54.224Z,0.50
2023-06-10T13:47:22.115Z,0.52
2023-06-10T13:49:48.764Z,0.45
2023-06-10T13:52:15.393Z,0.60
2023-06-10T13:54:42.150Z,0.50
2023-06-10T13:57:11.538Z,0.40
2023-06-10T13:59:38.406Z,0.52
2023-06-10T14:02:05.691Z,0.60
2023-06-10T14:04:32.323Z,0.47
2023-06-10T14:06:58.957Z,0.30
2023-06-10T14:09:25.716Z,0.40
2023-06-10T14:11:53.041Z,0.40
2023-06-10T14:14:20.646Z,0.40
2023-06-10T14:16:47.432Z,0.40
2023-06-10T14:19:14.117Z,0.40
2023-06-10T14:21:40.924Z,0.30
2023-06-10T14:24:07.946Z,0.40
2023-06-10T14:26:34.555Z,0.40
2023-06-10T14:29:01.171Z,0.40
2023-06-10T14:31:27.823Z,0.40
2023-06-10T14:33:54.393Z,0.40
2023-06-10T14:36:21.078Z,0.40
2023-06-10T14:38:47.685Z,0.30
2023-06-10T14:41:14.688Z,0.43
2023-06-10T14:43:41.330Z,0.60
2023-06-10T14:46:08.015Z,0.30
2023-06-10T14:48:34.704Z,0.40
2023-06-10T14:51:01.378Z,0.30
2023-06-10T14:53:28.744Z,0.40
2023-06-10T14:55:58.622Z,0.50
2023-06-10T14:58:25.450Z,0.40
2023-06-10T15:00:52.549Z,0.57
2023-06-10T15:03:19.599Z,0.50
2023-06-10T15:05:46.850Z,0.40
2023-06-10T15:08:13.572Z,0.40
2023-06-10T15:10:40.820Z,0.45
2023-06-10T15:13:07.418Z,0.38
2023-06-10T15:15:34.413Z,0.40
2023-06-10T15:18:01.421Z,0.40
2023-06-10T15:20:28.299Z,0.32
2023-06-10T15:22:55.144Z,0.40
2023-06-10T15:25:30.837Z,0.50
2023-06-10T15:27:58.451Z,0.40
2023-06-10T15:30:25.143Z,0.40
2023-06-10T15:32:52.160Z,0.50
2023-06-10T15:35:19.787Z,0.35
2023-06-10T15:37:47.789Z,0.50
2023-06-10T15:40:15.155Z,0.30
2023-06-10T15:42:42.385Z,0.40
2023-06-10T15:45:09.568Z,0.57
2023-06-10T15:47:36.450Z,0.50
2023-06-10T15:50:03.593Z,0.40
2023-06-10T15:52:32.931Z,0.30
2023-06-10T15:54:59.639Z,0.52
2023-06-10T15:57:27.341Z,0.30
2023-06-10T15:59:54.314Z,0.35
2023-06-10T16:02:21.242Z,0.50
2023-06-10T16:04:49.170Z,0.50
2023-06-10T16:07:16.227Z,0.68
2023-06-10T16:09:42.993Z,0.40
2023-06-10T16:12:09.835Z,0.50
2023-06-10T16:14:36.442Z,0.47
2023-06-10T16:17:03.750Z,0.40
2023-06-10T16:19:31.068Z,0.55
2023-06-10T16:21:57.619Z,0.40
2023-06-10T16:24:24.965Z,0.50
2023-06-10T16:26:54.939Z,0.57
2023-06-10T16:29:21.823Z,0.40
2023-06-10T16:31:50.777Z,0.40
2023-06-10T16:34:17.960Z,0.35
2023-06-10T16:36:44.676Z,0.30
2023-06-10T16:39:11.516Z,0.57
2023-06-10T16:41:40.256Z,0.50
2023-06-10T16:44:06.863Z,0.50
2023-06-10T16:46:33.490Z,0.30
2023-06-10T16:49:00.182Z,0.30
2023-06-10T16:51:27.806Z,1.20
2023-06-10T16:53:54.548Z,0.55
2023-06-10T16:56:22.811Z,0.50
2023-06-10T16:58:49.522Z,0.50
2023-06-10T17:01:17.182Z,0.52
2023-06-10T17:03:44.277Z,0.60
2023-06-10T17:06:12.190Z,0.50
2023-06-10T17:08:38.789Z,0.40
2023-06-10T17:11:05.835Z,0.50
2023-06-10T17:13:32.682Z,0.50
2023-06-10T17:16:02.016Z,0.47
2023-06-10T17:18:28.929Z,0.60
2023-06-10T17:20:55.763Z,0.50
2023-06-10T17:23:23.738Z,0.60
2023-06-10T17:25:50.653Z,0.50
2023-06-10T17:28:17.582Z,0.55
2023-06-10T17:30:46.504Z,0.60
2023-06-10T17:33:13.357Z,0.43
2023-06-10T17:35:40.341Z,0.60
2023-06-10T17:38:06.991Z,0.40
2023-06-10T17:40:33.863Z,0.50
2023-06-10T17:43:00.495Z,0.60
2023-06-10T17:45:27.112Z,0.47
2023-06-10T17:47:54.432Z,0.50
2023-06-10T17:50:21.305Z,0.52
2023-06-10T17:52:48.117Z,0.45
2023-06-10T17:55:14.832Z,0.50
2023-06-10T17:57:41.741Z,0.40
2023-06-10T18:00:09.001Z,0.40
2023-06-10T18:02:36.577Z,0.22
2023-06-10T18:05:03.578Z,0.50
2023-06-10T18:07:33.037Z,0.55
2023-06-10T18:09:59.910Z,0.50
2023-06-10T18:12:35.031Z,0.60
2023-06-10T18:15:03.509Z,0.65
2023-06-10T18:17:31.895Z,1.33
2023-06-10T18:20:01.880Z,1.10
2023-06-10T18:22:31.193Z,0.70
2023-06-10T18:25:06.123Z,1.17
2023-06-10T18:27:34.390Z,0.77
2023-06-10T18:30:02.519Z,0.90
2023-06-10T18:32:29.477Z,0.80
2023-06-10T18:34:56.577Z,0.90
2023-06-10T18:37:23.629Z,0.70
2023-06-10T18:39:50.466Z,1.13
2023-06-10T18:42:17.549Z,0.95
2023-06-10T18:44:44.387Z,1.00
2023-06-10T18:47:11.170Z,1.13
2023-06-10T18:49:38.939Z,0.80
2023-06-10T18:52:07.455Z,0.90
2023-06-10T18:54:36.028Z,1.02
2023-06-10T18:57:03.022Z,0.93
2023-06-10T18:59:29.835Z,0.90
2023-06-10T19:01:56.708Z,1.10
2023-06-10T19:04:23.445Z,1.48
2023-06-10T19:06:50.340Z,0.95
2023-06-10T19:09:17.346Z,1.23
2023-06-10T19:11:44.033Z,1.27
2023-06-10T19:14:11.668Z,0.88
2023-06-10T19:16:38.467Z,1.00
2023-06-10T19:19:05.129Z,0.77
2023-06-10T19:21:31.872Z,1.10
2023-06-10T19:23:59.702Z,1.25
2023-06-10T19:26:26.359Z,1.10
2023-06-10T19:28:53.485Z,1.25
2023-06-10T19:31:20.538Z,1.20
2023-06-10T19:33:47.289Z,1.67
2023-06-10T19:36:14.068Z,1.13
2023-06-10T19:38:41.052Z,1.63
2023-06-10T19:41:07.782Z,1.27
2023-06-10T19:43:34.417Z,1.10
2023-06-10T19:46:01.539Z,2.00
2023-06-10T19:48:28.268Z,3.08
2023-06-10T19:50:55.010Z,1.58
2023-06-10T19:53:21.584Z,1.60
2023-06-10T19:55:48.201Z,1.58
2023-06-10T19:58:14.937Z,1.48
2023-06-10T20:00:41.522Z,1.30
2023-06-10T20:03:08.295Z,1.20
2023-06-10T20:05:35.193Z,1.30
2023-06-10T20:08:02.277Z,1.77
2023-06-10T20:10:29.174Z,2.28
2023-06-10T20:12:56.324Z,2.15
2023-06-10T20:15:23.204Z,1.73
2023-06-10T20:17:53.052Z,2.03
2023-06-10T20:20:19.994Z,1.98
2023-06-10T20:22:47.440Z,1.58
2023-06-10T20:25:17.668Z,1.38
2023-06-10T20:27:44.442Z,1.40
2023-06-10T20:30:11.499Z,1.13
2023-06-10T20:32:38.415Z,1.60
2023-06-10T20:35:06.178Z,1.30
2023-06-10T20:37:33.075Z,1.45
2023-06-10T20:39:59.899Z,1.35
2023-06-10T20:42:27.415Z,1.90
2023-06-10T20:44:55.819Z,1.45
2023-06-10T20:47:23.024Z,1.98
2023-06-10T20:49:49.737Z,2.05
2023-06-10T20:52:19.791Z,1.95
2023-06-10T20:54:46.819Z,1.60
2023-06-10T20:57:13.877Z,1.85
2023-06-10T20:59:41.736Z,1.45
2023-06-10T21:02:12.560Z,1.50
2023-06-10T21:04:39.391Z,2.05
2023-06-10T21:07:07.457Z,1.90
2023-06-10T21:09:35.410Z,1.88
2023-06-10T21:12:02.138Z,2.17
2023-06-10T21:14:29.162Z,2.53
2023-06-10T21:16:56.004Z,2.33
2023-06-10T21:19:23.301Z,1.90
2023-06-10T21:21:50.803Z,1.80
2023-06-10T21:24:17.766Z,2.17
2023-06-10T21:26:45.244Z,2.03
2023-06-10T21:29:12.670Z,2.33
2023-06-10T21:31:39.745Z,2.35
2023-06-10T21:34:14.030Z,2.22
2023-06-10T21:36:48.245Z,2.38
2023-06-10T21:39:15.936Z,2.15
2023-06-10T21:41:42.940Z,2.22
2023-06-10T21:44:10.252Z,2.30
2023-06-10T21:46:38.808Z,1.92
2023-06-10T21:49:05.544Z,1.90
2023-06-10T21:51:32.247Z,1.92
2023-06-10T21:53:59.133Z,2.50
2023-06-10T21:56:27.671Z,2.15
2023-06-10T21:58:54.461Z,1.88
2023-06-10T22:01:21.496Z,1.95
2023-06-10T22:03:48.270Z,2.42
2023-06-10T22:06:15.699Z,1.95
2023-06-10T22:08:42.359Z,1.80
2023-06-10T22:11:10.406Z,2.00
2023-06-10T22:13:37.017Z,2.15
2023-06-10T22:16:03.777Z,2.15
2023-06-10T22:18:30.794Z,2.75
2023-06-10T22:20:57.422Z,1.88
2023-06-10T22:23:24.048Z,2.33
2023-06-10T22:25:50.937Z,2.20
2023-06-10T22:28:17.551Z,2.22
2023-06-10T22:30:44.543Z,2.55
2023-06-10T22:33:11.901Z,2.10
2023-06-10T22:35:38.652Z,1.75
2023-06-10T22:38:05.495Z,1.80
2023-06-10T22:40:32.095Z,1.70
2023-06-10T22:43:00.417Z,1.77
2023-06-10T22:45:27.172Z,1.75
2023-06-10T22:47:54.820Z,2.03
2023-06-10T22:50:21.668Z,1.83
2023-06-10T22:52:51.338Z,2.10
2023-06-10T22:55:18.104Z,1.80
2023-06-10T22:57:46.298Z,3.67
2023-06-10T23:00:16.750Z,1.60
2023-06-10T23:02:43.653Z,2.05
2023-06-10T23:05:12.263Z,1.95
2023-06-10T23:07:39.373Z,1.60
2023-06-10T23:10:07.090Z,1.75
2023-06-10T23:12:33.797Z,1.80
2023-06-10T23:15:00.533Z,1.70
2023-06-10T23:17:29.293Z,1.63
2023-06-10T23:19:58.055Z,1.52
2023-06-10T23:22:32.060Z,1.70
2023-06-10T23:27:29.391Z,1.60
2023-06-10T23:29:59.903Z,1.92
2023-06-10T23:32:27.645Z,1.50
2023-06-10T23:34:54.602Z,1.80
2023-06-10T23:37:21.689Z,1.30
2023-06-10T23:39:49.509Z,1.40
2023-06-10T23:42:17.291Z,2.00
2023-06-10T23:44:44.538Z,1.88
2023-06-10T23:47:11.136Z,1.80
2023-06-10T23:49:37.809Z,1.58
2023-06-10T23:52:04.711Z,1.65
2023-06-10T23:54:31.569Z,2.00
2023-06-10T23:56:59.474Z,2.47
2023-06-10T23:59:26.512Z,1.50
